sensor_id;sensor_type;location;lat;lon;timestamp;P1;durP1;ratioP1;P2;durP2;ratioP2
19788;SDS011;10054;59.332;18.244;2022-08-19T00:00:10;42.10;;;20.52;;
19788;SDS011;10054;59.332;18.244;2022-08-19T00:02:41;31.12;;;18.30;;
19788;SDS011;10054;59.332;18.244;2022-08-19T00:05:10;30.77;;;20.77;;
19788;SDS011;10054;59.332;18.244;2022-08-19T00:07:40;36.83;;;21.52;;
19788;SDS011;10054;59.332;18.244;2022-08-19T00:10:11;35.03;;;21.15;;
19788;SDS011;10054;59.332;18.244;2022-08-19T00:12:41;28.87;;;21.02;;
19788;SDS011;10054;59.332;18.244;2022-08-19T00:15:11;33.02;;;21.87;;
19788;SDS011;10054;59.332;18.244;2022-08-19T00:17:42;34.73;;;22.00;;
19788;SDS011;10054;59.332;18.244;2022-08-19T00:20:13;35.28;;;22.10;;
19788;SDS011;10054;59.332;18.244;2022-08-19T00:22:44;35.60;;;22.95;;
19788;SDS011;10054;59.332;18.244;2022-08-19T00:25:16;37.40;;;23.75;;
19788;SDS011;10054;59.332;18.244;2022-08-19T00:27:45;36.95;;;23.83;;
19788;SDS011;10054;59.332;18.244;2022-08-19T00:30:14;40.67;;;23.38;;
19788;SDS011;10054;59.332;18.244;2022-08-19T00:32:43;36.93;;;24.18;;
19788;SDS011;10054;59.332;18.244;2022-08-19T00:35:12;34.27;;;24.87;;
19788;SDS011;10054;59.332;18.244;2022-08-19T00:37:41;34.18;;;23.50;;
19788;SDS011;10054;59.332;18.244;2022-08-19T00:40:12;41.35;;;23.70;;
19788;SDS011;10054;59.332;18.244;2022-08-19T00:42:41;37.20;;;24.90;;
19788;SDS011;10054;59.332;18.244;2022-08-19T00:45:15;36.40;;;25.12;;
19788;SDS011;10054;59.332;18.244;2022-08-19T00:47:46;34.25;;;23.83;;
19788;SDS011;10054;59.332;18.244;2022-08-19T00:50:16;39.10;;;24.15;;
19788;SDS011;10054;59.332;18.244;2022-08-19T00:52:47;35.85;;;24.67;;
19788;SDS011;10054;59.332;18.244;2022-08-19T00:55:20;36.70;;;24.12;;
19788;SDS011;10054;59.332;18.244;2022-08-19T00:57:57;33.42;;;24.50;;
19788;SDS011;10054;59.332;18.244;2022-08-19T01:00:27;32.17;;;23.95;;
19788;SDS011;10054;59.332;18.244;2022-08-19T01:02:57;31.05;;;25.15;;
19788;SDS011;10054;59.332;18.244;2022-08-19T01:05:27;29.82;;;24.25;;
19788;SDS011;10054;59.332;18.244;2022-08-19T01:07:56;33.50;;;25.08;;
19788;SDS011;10054;59.332;18.244;2022-08-19T01:10:30;30.05;;;23.75;;
19788;SDS011;10054;59.332;18.244;2022-08-19T01:13:00;35.88;;;25.48;;
19788;SDS011;10054;59.332;18.244;2022-08-19T01:15:32;33.90;;;26.10;;
19788;SDS011;10054;59.332;18.244;2022-08-19T01:18:04;32.83;;;24.50;;
19788;SDS011;10054;59.332;18.244;2022-08-19T01:20:33;32.53;;;24.18;;
19788;SDS011;10054;59.332;18.244;2022-08-19T01:23:02;33.00;;;25.20;;
19788;SDS011;10054;59.332;18.244;2022-08-19T01:25:33;30.70;;;25.08;;
19788;SDS011;10054;59.332;18.244;2022-08-19T01:28:16;33.75;;;24.07;;
19788;SDS011;10054;59.332;18.244;2022-08-19T01:30:47;33.90;;;25.15;;
19788;SDS011;10054;59.332;18.244;2022-08-19T01:33:16;31.35;;;23.52;;
19788;SDS011;10054;59.332;18.244;2022-08-19T01:35:46;30.40;;;24.47;;
19788;SDS011;10054;59.332;18.244;2022-08-19T01:38:26;30.50;;;22.95;;
19788;SDS011;10054;59.332;18.244;2022-08-19T01:40:51;25.48;;;22.70;;
19788;SDS011;10054;59.332;18.244;2022-08-19T01:43:20;26.87;;;21.87;;
19788;SDS011;10054;59.332;18.244;2022-08-19T01:45:49;29.67;;;23.12;;
19788;SDS011;10054;59.332;18.244;2022-08-19T01:48:19;26.93;;;22.52;;
19788;SDS011;10054;59.332;18.244;2022-08-19T01:50:49;28.80;;;22.42;;
19788;SDS011;10054;59.332;18.244;2022-08-19T01:53:18;26.87;;;22.82;;
19788;SDS011;10054;59.332;18.244;2022-08-19T01:55:47;31.12;;;22.25;;
19788;SDS011;10054;59.332;18.244;2022-08-19T01:58:18;26.80;;;22.98;;
19788;SDS011;10054;59.332;18.244;2022-08-19T02:00:48;25.05;;;22.32;;
19788;SDS011;10054;59.332;18.244;2022-08-19T02:03:17;30.50;;;22.58;;
19788;SDS011;10054;59.332;18.244;2022-08-19T02:05:47;28.52;;;22.20;;
19788;SDS011;10054;59.332;18.244;2022-08-19T02:08:17;27.75;;;22.67;;
19788;SDS011;10054;59.332;18.244;2022-08-19T02:10:46;29.32;;;22.52;;
19788;SDS011;10054;59.332;18.244;2022-08-19T02:13:16;26.40;;;22.13;;
19788;SDS011;10054;59.332;18.244;2022-08-19T02:15:45;32.17;;;22.75;;
19788;SDS011;10054;59.332;18.244;2022-08-19T02:18:14;32.25;;;23.18;;
19788;SDS011;10054;59.332;18.244;2022-08-19T02:20:44;34.18;;;23.42;;
19788;SDS011;10054;59.332;18.244;2022-08-19T02:23:14;26.27;;;22.85;;
19788;SDS011;10054;59.332;18.244;2022-08-19T02:25:44;28.95;;;23.70;;
19788;SDS011;10054;59.332;18.244;2022-08-19T02:28:14;36.58;;;24.20;;
19788;SDS011;10054;59.332;18.244;2022-08-19T02:30:43;35.52;;;23.62;;
19788;SDS011;10054;59.332;18.244;2022-08-19T02:33:12;35.13;;;24.92;;
19788;SDS011;10054;59.332;18.244;2022-08-19T02:35:42;33.02;;;24.25;;
19788;SDS011;10054;59.332;18.244;2022-08-19T02:38:12;32.75;;;24.15;;
19788;SDS011;10054;59.332;18.244;2022-08-19T02:41:00;27.42;;;22.60;;
19788;SDS011;10054;59.332;18.244;2022-08-19T02:43:27;27.42;;;23.32;;
19788;SDS011;10054;59.332;18.244;2022-08-19T02:45:57;33.60;;;23.25;;
19788;SDS011;10054;59.332;18.244;2022-08-19T02:48:26;38.20;;;23.73;;
19788;SDS011;10054;59.332;18.244;2022-08-19T02:50:56;34.88;;;24.60;;
19788;SDS011;10054;59.332;18.244;2022-08-19T02:53:26;35.75;;;24.47;;
19788;SDS011;10054;59.332;18.244;2022-08-19T02:55:56;38.60;;;25.80;;
19788;SDS011;10054;59.332;18.244;2022-08-19T02:58:25;36.93;;;24.72;;
19788;SDS011;10054;59.332;18.244;2022-08-19T03:00:55;29.42;;;24.67;;
19788;SDS011;10054;59.332;18.244;2022-08-19T03:03:24;36.73;;;25.02;;
19788;SDS011;10054;59.332;18.244;2022-08-19T03:06:06;38.87;;;24.83;;
19788;SDS011;10054;59.332;18.244;2022-08-19T03:08:37;36.42;;;24.55;;
19788;SDS011;10054;59.332;18.244;2022-08-19T03:11:20;41.58;;;25.00;;
19788;SDS011;10054;59.332;18.244;2022-08-19T03:13:51;43.92;;;25.70;;
19788;SDS011;10054;59.332;18.244;2022-08-19T03:16:21;49.13;;;27.15;;
19788;SDS011;10054;59.332;18.244;2022-08-19T03:18:52;42.88;;;27.32;;
19788;SDS011;10054;59.332;18.244;2022-08-19T03:21:24;45.88;;;27.20;;
19788;SDS011;10054;59.332;18.244;2022-08-19T03:23:54;45.05;;;26.85;;
19788;SDS011;10054;59.332;18.244;2022-08-19T03:26:25;37.93;;;26.80;;
19788;SDS011;10054;59.332;18.244;2022-08-19T03:28:54;38.95;;;26.97;;
19788;SDS011;10054;59.332;18.244;2022-08-19T03:31:25;39.48;;;26.05;;
19788;SDS011;10054;59.332;18.244;2022-08-19T03:33:54;38.78;;;24.85;;
19788;SDS011;10054;59.332;18.244;2022-08-19T03:36:25;35.50;;;25.15;;
19788;SDS011;10054;59.332;18.244;2022-08-19T03:38:55;40.28;;;23.42;;
19788;SDS011;10054;59.332;18.244;2022-08-19T03:41:27;43.15;;;23.65;;
19788;SDS011;10054;59.332;18.244;2022-08-19T03:43:59;38.50;;;24.92;;
19788;SDS011;10054;59.332;18.244;2022-08-19T03:46:29;38.67;;;24.35;;
19788;SDS011;10054;59.332;18.244;2022-08-19T03:49:00;39.53;;;25.00;;
19788;SDS011;10054;59.332;18.244;2022-08-19T03:51:37;42.15;;;24.20;;
19788;SDS011;10054;59.332;18.244;2022-08-19T03:54:07;46.23;;;26.37;;
19788;SDS011;10054;59.332;18.244;2022-08-19T03:56:39;42.95;;;25.43;;
19788;SDS011;10054;59.332;18.244;2022-08-19T03:59:11;50.52;;;24.63;;
19788;SDS011;10054;59.332;18.244;2022-08-19T04:01:41;48.05;;;25.37;;
19788;SDS011;10054;59.332;18.244;2022-08-19T04:04:10;38.45;;;24.27;;
19788;SDS011;10054;59.332;18.244;2022-08-19T04:06:59;45.65;;;23.22;;
19788;SDS011;10054;59.332;18.244;2022-08-19T04:09:54;57.27;;;23.73;;
19788;SDS011;10054;59.332;18.244;2022-08-19T04:12:23;106.50;;;22.80;;
19788;SDS011;10054;59.332;18.244;2022-08-19T04:14:52;37.80;;;22.13;;
19788;SDS011;10054;59.332;18.244;2022-08-19T04:17:21;37.83;;;22.62;;
19788;SDS011;10054;59.332;18.244;2022-08-19T04:19:50;30.12;;;22.80;;
19788;SDS011;10054;59.332;18.244;2022-08-19T04:22:19;33.08;;;22.50;;
19788;SDS011;10054;59.332;18.244;2022-08-19T04:24:49;47.78;;;22.93;;
19788;SDS011;10054;59.332;18.244;2022-08-19T04:27:18;43.98;;;22.73;;
19788;SDS011;10054;59.332;18.244;2022-08-19T04:29:47;43.33;;;22.82;;
19788;SDS011;10054;59.332;18.244;2022-08-19T04:32:16;39.75;;;22.15;;
19788;SDS011;10054;59.332;18.244;2022-08-19T04:34:46;31.68;;;21.80;;
19788;SDS011;10054;59.332;18.244;2022-08-19T04:37:16;34.60;;;23.27;;
19788;SDS011;10054;59.332;18.244;2022-08-19T04:39:45;34.63;;;23.70;;
19788;SDS011;10054;59.332;18.244;2022-08-19T04:42:32;31.82;;;23.85;;
19788;SDS011;10054;59.332;18.244;2022-08-19T04:45:12;30.92;;;21.35;;
19788;SDS011;10054;59.332;18.244;2022-08-19T04:47:41;33.42;;;22.58;;
19788;SDS011;10054;59.332;18.244;2022-08-19T04:50:11;31.45;;;22.82;;
19788;SDS011;10054;59.332;18.244;2022-08-19T04:52:40;34.23;;;23.18;;
19788;SDS011;10054;59.332;18.244;2022-08-19T04:55:11;29.02;;;21.60;;
19788;SDS011;10054;59.332;18.244;2022-08-19T04:57:41;24.25;;;18.73;;
19788;SDS011;10054;59.332;18.244;2022-08-19T05:00:10;22.65;;;18.90;;
19788;SDS011;10054;59.332;18.244;2022-08-19T05:02:40;22.15;;;17.57;;
19788;SDS011;10054;59.332;18.244;2022-08-19T05:05:09;24.75;;;18.23;;
19788;SDS011;10054;59.332;18.244;2022-08-19T05:07:39;22.50;;;17.48;;
19788;SDS011;10054;59.332;18.244;2022-08-19T05:10:08;23.60;;;17.50;;
19788;SDS011;10054;59.332;18.244;2022-08-19T05:12:38;24.77;;;17.23;;
19788;SDS011;10054;59.332;18.244;2022-08-19T05:15:07;22.75;;;17.95;;
19788;SDS011;10054;59.332;18.244;2022-08-19T05:17:36;24.45;;;15.83;;
19788;SDS011;10054;59.332;18.244;2022-08-19T05:20:07;19.60;;;15.50;;
19788;SDS011;10054;59.332;18.244;2022-08-19T05:25:29;17.23;;;14.98;;
19788;SDS011;10054;59.332;18.244;2022-08-19T05:27:58;17.85;;;14.35;;
19788;SDS011;10054;59.332;18.244;2022-08-19T05:30:27;16.30;;;13.22;;
19788;SDS011;10054;59.332;18.244;2022-08-19T05:32:57;18.95;;;12.25;;
19788;SDS011;10054;59.332;18.244;2022-08-19T05:35:26;17.87;;;12.47;;
19788;SDS011;10054;59.332;18.244;2022-08-19T05:37:55;15.72;;;11.83;;
19788;SDS011;10054;59.332;18.244;2022-08-19T05:40:24;14.03;;;11.43;;
19788;SDS011;10054;59.332;18.244;2022-08-19T05:42:53;13.13;;;10.82;;
19788;SDS011;10054;59.332;18.244;2022-08-19T05:45:23;19.05;;;11.50;;
19788;SDS011;10054;59.332;18.244;2022-08-19T05:47:52;14.60;;;10.90;;
19788;SDS011;10054;59.332;18.244;2022-08-19T05:50:21;16.70;;;10.15;;
19788;SDS011;10054;59.332;18.244;2022-08-19T05:52:50;11.15;;;9.63;;
19788;SDS011;10054;59.332;18.244;2022-08-19T05:55:19;14.78;;;10.03;;
19788;SDS011;10054;59.332;18.244;2022-08-19T05:57:48;14.87;;;10.25;;
19788;SDS011;10054;59.332;18.244;2022-08-19T06:00:18;14.23;;;10.28;;
19788;SDS011;10054;59.332;18.244;2022-08-19T06:02:47;14.40;;;10.72;;
19788;SDS011;10054;59.332;18.244;2022-08-19T06:05:17;13.90;;;9.48;;
19788;SDS011;10054;59.332;18.244;2022-08-19T06:07:46;12.78;;;9.23;;
19788;SDS011;10054;59.332;18.244;2022-08-19T06:10:16;13.25;;;9.20;;
19788;SDS011;10054;59.332;18.244;2022-08-19T06:12:45;14.33;;;9.03;;
19788;SDS011;10054;59.332;18.244;2022-08-19T06:15:14;10.53;;;8.33;;
19788;SDS011;10054;59.332;18.244;2022-08-19T06:17:43;11.38;;;8.25;;
19788;SDS011;10054;59.332;18.244;2022-08-19T06:20:13;11.20;;;8.78;;
19788;SDS011;10054;59.332;18.244;2022-08-19T06:22:45;13.62;;;8.13;;
19788;SDS011;10054;59.332;18.244;2022-08-19T06:25:16;14.05;;;7.97;;
19788;SDS011;10054;59.332;18.244;2022-08-19T06:27:46;14.15;;;8.43;;
19788;SDS011;10054;59.332;18.244;2022-08-19T06:30:15;14.73;;;8.20;;
19788;SDS011;10054;59.332;18.244;2022-08-19T06:32:44;11.70;;;7.90;;
19788;SDS011;10054;59.332;18.244;2022-08-19T06:35:13;10.10;;;7.55;;
19788;SDS011;10054;59.332;18.244;2022-08-19T06:37:42;13.18;;;8.38;;
19788;SDS011;10054;59.332;18.244;2022-08-19T06:40:11;10.48;;;7.50;;
19788;SDS011;10054;59.332;18.244;2022-08-19T06:42:40;13.20;;;7.75;;
19788;SDS011;10054;59.332;18.244;2022-08-19T06:45:09;11.08;;;7.85;;
19788;SDS011;10054;59.332;18.244;2022-08-19T06:47:38;13.30;;;7.70;;
19788;SDS011;10054;59.332;18.244;2022-08-19T06:50:09;12.30;;;6.80;;
19788;SDS011;10054;59.332;18.244;2022-08-19T06:52:38;10.90;;;6.70;;
19788;SDS011;10054;59.332;18.244;2022-08-19T06:55:07;11.18;;;7.05;;
19788;SDS011;10054;59.332;18.244;2022-08-19T06:57:37;10.60;;;6.60;;
19788;SDS011;10054;59.332;18.244;2022-08-19T07:00:06;13.40;;;6.28;;
19788;SDS011;10054;59.332;18.244;2022-08-19T07:02:44;8.25;;;5.90;;
19788;SDS011;10054;59.332;18.244;2022-08-19T07:05:13;10.93;;;6.00;;
19788;SDS011;10054;59.332;18.244;2022-08-19T07:07:42;10.48;;;6.42;;
19788;SDS011;10054;59.332;18.244;2022-08-19T07:10:14;9.83;;;6.17;;
19788;SDS011;10054;59.332;18.244;2022-08-19T07:12:43;7.97;;;5.37;;
19788;SDS011;10054;59.332;18.244;2022-08-19T07:15:14;8.63;;;5.58;;
19788;SDS011;10054;59.332;18.244;2022-08-19T07:17:43;9.23;;;5.30;;
19788;SDS011;10054;59.332;18.244;2022-08-19T07:20:12;10.50;;;5.62;;
19788;SDS011;10054;59.332;18.244;2022-08-19T07:22:41;9.38;;;5.03;;
19788;SDS011;10054;59.332;18.244;2022-08-19T07:25:12;11.85;;;5.53;;
19788;SDS011;10054;59.332;18.244;2022-08-19T07:27:42;13.70;;;5.80;;
19788;SDS011;10054;59.332;18.244;2022-08-19T07:30:11;9.10;;;6.17;;
19788;SDS011;10054;59.332;18.244;2022-08-19T07:32:40;9.08;;;6.03;;
19788;SDS011;10054;59.332;18.244;2022-08-19T07:35:10;6.30;;;4.90;;
19788;SDS011;10054;59.332;18.244;2022-08-19T07:37:39;13.20;;;6.28;;
19788;SDS011;10054;59.332;18.244;2022-08-19T07:40:09;8.23;;;5.85;;
19788;SDS011;10054;59.332;18.244;2022-08-19T07:42:40;11.28;;;5.47;;
19788;SDS011;10054;59.332;18.244;2022-08-19T07:45:09;10.30;;;5.45;;
19788;SDS011;10054;59.332;18.244;2022-08-19T07:47:38;8.40;;;5.12;;
19788;SDS011;10054;59.332;18.244;2022-08-19T07:50:08;8.10;;;5.00;;
19788;SDS011;10054;59.332;18.244;2022-08-19T07:52:38;8.80;;;5.20;;
19788;SDS011;10054;59.332;18.244;2022-08-19T07:55:09;9.75;;;5.28;;
19788;SDS011;10054;59.332;18.244;2022-08-19T07:57:38;9.10;;;5.42;;
19788;SDS011;10054;59.332;18.244;2022-08-19T08:00:07;17.77;;;7.28;;
19788;SDS011;10054;59.332;18.244;2022-08-19T08:02:37;12.65;;;6.05;;
19788;SDS011;10054;59.332;18.244;2022-08-19T08:05:09;12.85;;;5.67;;
19788;SDS011;10054;59.332;18.244;2022-08-19T08:07:55;11.65;;;5.67;;
19788;SDS011;10054;59.332;18.244;2022-08-19T08:10:42;10.30;;;5.22;;
19788;SDS011;10054;59.332;18.244;2022-08-19T08:13:11;9.10;;;5.62;;
19788;SDS011;10054;59.332;18.244;2022-08-19T08:15:41;7.25;;;5.37;;
19788;SDS011;10054;59.332;18.244;2022-08-19T08:18:11;9.23;;;5.70;;
19788;SDS011;10054;59.332;18.244;2022-08-19T08:20:40;11.55;;;5.92;;
19788;SDS011;10054;59.332;18.244;2022-08-19T08:23:09;15.85;;;5.67;;
19788;SDS011;10054;59.332;18.244;2022-08-19T08:25:52;9.65;;;5.47;;
19788;SDS011;10054;59.332;18.244;2022-08-19T08:28:24;10.75;;;5.60;;
19788;SDS011;10054;59.332;18.244;2022-08-19T08:30:57;9.50;;;5.10;;
19788;SDS011;10054;59.332;18.244;2022-08-19T08:33:27;8.53;;;5.25;;
19788;SDS011;10054;59.332;18.244;2022-08-19T08:35:56;10.10;;;5.22;;
19788;SDS011;10054;59.332;18.244;2022-08-19T08:38:25;11.83;;;5.45;;
19788;SDS011;10054;59.332;18.244;2022-08-19T08:40:57;9.25;;;5.05;;
19788;SDS011;10054;59.332;18.244;2022-08-19T08:43:32;9.70;;;5.25;;
19788;SDS011;10054;59.332;18.244;2022-08-19T08:46:05;12.58;;;5.40;;
19788;SDS011;10054;59.332;18.244;2022-08-19T08:48:36;12.37;;;5.58;;
19788;SDS011;10054;59.332;18.244;2022-08-19T08:51:10;10.95;;;5.15;;
19788;SDS011;10054;59.332;18.244;2022-08-19T08:53:42;13.10;;;5.47;;
19788;SDS011;10054;59.332;18.244;2022-08-19T08:56:12;10.10;;;5.30;;
19788;SDS011;10054;59.332;18.244;2022-08-19T08:58:54;8.25;;;5.33;;
19788;SDS011;10054;59.332;18.244;2022-08-19T09:01:25;10.72;;;5.47;;
19788;SDS011;10054;59.332;18.244;2022-08-19T09:03:56;6.72;;;5.20;;
19788;SDS011;10054;59.332;18.244;2022-08-19T09:11:55;8.90;;;5.12;;
19788;SDS011;10054;59.332;18.244;2022-08-19T09:14:55;10.85;;;5.45;;
19788;SDS011;10054;59.332;18.244;2022-08-19T09:17:25;8.30;;;5.00;;
19788;SDS011;10054;59.332;18.244;2022-08-19T09:22:47;9.48;;;5.35;;
19788;SDS011;10054;59.332;18.244;2022-08-19T09:25:18;6.92;;;5.22;;
19788;SDS011;10054;59.332;18.244;2022-08-19T09:27:49;9.45;;;5.00;;
19788;SDS011;10054;59.332;18.244;2022-08-19T09:30:22;9.05;;;5.20;;
19788;SDS011;10054;59.332;18.244;2022-08-19T09:32:53;11.35;;;5.08;;
19788;SDS011;10054;59.332;18.244;2022-08-19T09:35:23;10.88;;;5.58;;
19788;SDS011;10054;59.332;18.244;2022-08-19T09:37:55;10.48;;;5.33;;
19788;SDS011;10054;59.332;18.244;2022-08-19T09:40:31;10.58;;;5.40;;
19788;SDS011;10054;59.332;18.244;2022-08-19T09:42:57;9.95;;;4.97;;
19788;SDS011;10054;59.332;18.244;2022-08-19T09:45:28;9.38;;;5.10;;
19788;SDS011;10054;59.332;18.244;2022-08-19T09:47:57;10.35;;;5.05;;
19788;SDS011;10054;59.332;18.244;2022-08-19T09:50:26;6.80;;;5.10;;
19788;SDS011;10054;59.332;18.244;2022-08-19T09:52:57;10.98;;;4.62;;
19788;SDS011;10054;59.332;18.244;2022-08-19T09:55:26;8.88;;;4.92;;
19788;SDS011;10054;59.332;18.244;2022-08-19T09:57:55;10.48;;;5.50;;
19788;SDS011;10054;59.332;18.244;2022-08-19T10:00:24;10.38;;;4.70;;
19788;SDS011;10054;59.332;18.244;2022-08-19T10:02:53;7.40;;;5.00;;
19788;SDS011;10054;59.332;18.244;2022-08-19T10:05:22;9.68;;;5.20;;
19788;SDS011;10054;59.332;18.244;2022-08-19T10:08:09;9.75;;;5.12;;
19788;SDS011;10054;59.332;18.244;2022-08-19T10:10:39;7.67;;;5.08;;
19788;SDS011;10054;59.332;18.244;2022-08-19T10:13:13;7.55;;;4.90;;
19788;SDS011;10054;59.332;18.244;2022-08-19T10:15:43;5.65;;;4.72;;
19788;SDS011;10054;59.332;18.244;2022-08-19T10:18:13;7.90;;;5.08;;
19788;SDS011;10054;59.332;18.244;2022-08-19T10:20:44;8.68;;;4.85;;
19788;SDS011;10054;59.332;18.244;2022-08-19T10:23:14;8.73;;;5.12;;
19788;SDS011;10054;59.332;18.244;2022-08-19T10:25:44;5.70;;;4.70;;
19788;SDS011;10054;59.332;18.244;2022-08-19T10:28:13;9.48;;;4.90;;
19788;SDS011;10054;59.332;18.244;2022-08-19T10:30:43;6.08;;;5.03;;
19788;SDS011;10054;59.332;18.244;2022-08-19T10:33:12;10.23;;;5.22;;
19788;SDS011;10054;59.332;18.244;2022-08-19T10:35:42;7.00;;;5.40;;
19788;SDS011;10054;59.332;18.244;2022-08-19T10:38:12;6.70;;;4.60;;
19788;SDS011;10054;59.332;18.244;2022-08-19T10:40:41;10.08;;;5.20;;
19788;SDS011;10054;59.332;18.244;2022-08-19T10:43:13;6.83;;;4.87;;
19788;SDS011;10054;59.332;18.244;2022-08-19T10:46:02;7.50;;;4.80;;
19788;SDS011;10054;59.332;18.244;2022-08-19T10:48:32;9.68;;;4.78;;
19788;SDS011;10054;59.332;18.244;2022-08-19T10:51:01;7.40;;;4.62;;
19788;SDS011;10054;59.332;18.244;2022-08-19T10:53:50;7.35;;;4.83;;
19788;SDS011;10054;59.332;18.244;2022-08-19T10:56:19;7.12;;;5.25;;
19788;SDS011;10054;59.332;18.244;2022-08-19T10:59:06;8.58;;;4.92;;
19788;SDS011;10054;59.332;18.244;2022-08-19T11:01:35;8.50;;;4.70;;
19788;SDS011;10054;59.332;18.244;2022-08-19T11:04:04;7.92;;;4.75;;
19788;SDS011;10054;59.332;18.244;2022-08-19T11:06:35;10.93;;;4.50;;
19788;SDS011;10054;59.332;18.244;2022-08-19T11:09:05;6.67;;;4.87;;
19788;SDS011;10054;59.332;18.244;2022-08-19T11:11:34;6.70;;;4.87;;
19788;SDS011;10054;59.332;18.244;2022-08-19T11:14:05;7.60;;;4.80;;
19788;SDS011;10054;59.332;18.244;2022-08-19T11:16:36;7.50;;;4.78;;
19788;SDS011;10054;59.332;18.244;2022-08-19T11:19:07;6.90;;;4.53;;
19788;SDS011;10054;59.332;18.244;2022-08-19T11:21:39;9.18;;;4.60;;
19788;SDS011;10054;59.332;18.244;2022-08-19T11:24:11;9.78;;;5.17;;
19788;SDS011;10054;59.332;18.244;2022-08-19T11:26:42;5.83;;;4.72;;
19788;SDS011;10054;59.332;18.244;2022-08-19T11:29:12;12.13;;;5.28;;
19788;SDS011;10054;59.332;18.244;2022-08-19T11:31:42;9.25;;;5.10;;
19788;SDS011;10054;59.332;18.244;2022-08-19T11:34:13;7.75;;;4.87;;
19788;SDS011;10054;59.332;18.244;2022-08-19T11:36:47;8.88;;;4.83;;
19788;SDS011;10054;59.332;18.244;2022-08-19T11:39:18;7.60;;;4.72;;
19788;SDS011;10054;59.332;18.244;2022-08-19T11:41:48;7.40;;;5.12;;
19788;SDS011;10054;59.332;18.244;2022-08-19T11:44:18;7.75;;;4.67;;
19788;SDS011;10054;59.332;18.244;2022-08-19T11:46:47;10.38;;;5.47;;
19788;SDS011;10054;59.332;18.244;2022-08-19T11:49:16;8.23;;;4.90;;
19788;SDS011;10054;59.332;18.244;2022-08-19T11:51:47;9.33;;;5.15;;
19788;SDS011;10054;59.332;18.244;2022-08-19T11:54:17;10.45;;;5.20;;
19788;SDS011;10054;59.332;18.244;2022-08-19T11:56:46;7.08;;;4.92;;
19788;SDS011;10054;59.332;18.244;2022-08-19T11:59:15;9.68;;;5.20;;
19788;SDS011;10054;59.332;18.244;2022-08-19T12:01:44;9.20;;;4.90;;
19788;SDS011;10054;59.332;18.244;2022-08-19T12:04:14;8.63;;;5.28;;
19788;SDS011;10054;59.332;18.244;2022-08-19T12:06:43;5.78;;;4.72;;
19788;SDS011;10054;59.332;18.244;2022-08-19T12:09:12;6.97;;;4.50;;
19788;SDS011;10054;59.332;18.244;2022-08-19T12:11:42;9.10;;;4.90;;
19788;SDS011;10054;59.332;18.244;2022-08-19T12:14:14;5.85;;;4.62;;
19788;SDS011;10054;59.332;18.244;2022-08-19T12:16:44;9.38;;;4.87;;
19788;SDS011;10054;59.332;18.244;2022-08-19T12:19:13;8.20;;;4.83;;
19788;SDS011;10054;59.332;18.244;2022-08-19T12:21:42;10.45;;;5.10;;
19788;SDS011;10054;59.332;18.244;2022-08-19T12:24:11;9.05;;;5.05;;
19788;SDS011;10054;59.332;18.244;2022-08-19T12:26:40;12.28;;;5.58;;
19788;SDS011;10054;59.332;18.244;2022-08-19T12:29:09;8.13;;;5.33;;
19788;SDS011;10054;59.332;18.244;2022-08-19T12:31:39;6.47;;;5.03;;
19788;SDS011;10054;59.332;18.244;2022-08-19T12:34:08;9.78;;;4.80;;
19788;SDS011;10054;59.332;18.244;2022-08-19T12:36:37;9.90;;;5.12;;
19788;SDS011;10054;59.332;18.244;2022-08-19T12:39:06;8.90;;;5.50;;
19788;SDS011;10054;59.332;18.244;2022-08-19T12:41:36;9.80;;;5.20;;
19788;SDS011;10054;59.332;18.244;2022-08-19T12:44:05;9.43;;;5.35;;
19788;SDS011;10054;59.332;18.244;2022-08-19T12:46:34;9.98;;;5.28;;
19788;SDS011;10054;59.332;18.244;2022-08-19T12:49:04;11.45;;;5.03;;
19788;SDS011;10054;59.332;18.244;2022-08-19T12:51:33;8.38;;;5.08;;
19788;SDS011;10054;59.332;18.244;2022-08-19T12:54:03;7.35;;;4.87;;
19788;SDS011;10054;59.332;18.244;2022-08-19T12:56:33;9.78;;;4.92;;
19788;SDS011;10054;59.332;18.244;2022-08-19T12:59:02;8.38;;;4.35;;
19788;SDS011;10054;59.332;18.244;2022-08-19T13:01:32;9.55;;;4.78;;
19788;SDS011;10054;59.332;18.244;2022-08-19T13:04:01;10.50;;;4.95;;
19788;SDS011;10054;59.332;18.244;2022-08-19T13:06:30;12.65;;;4.47;;
19788;SDS011;10054;59.332;18.244;2022-08-19T13:08:59;6.70;;;4.62;;
19788;SDS011;10054;59.332;18.244;2022-08-19T13:11:28;10.55;;;4.70;;
19788;SDS011;10054;59.332;18.244;2022-08-19T13:14:01;7.67;;;4.67;;
19788;SDS011;10054;59.332;18.244;2022-08-19T13:16:31;8.20;;;4.87;;
19788;SDS011;10054;59.332;18.244;2022-08-19T13:19:00;10.08;;;4.70;;
19788;SDS011;10054;59.332;18.244;2022-08-19T13:21:31;10.40;;;5.00;;
19788;SDS011;10054;59.332;18.244;2022-08-19T13:24:01;6.78;;;5.03;;
19788;SDS011;10054;59.332;18.244;2022-08-19T13:26:30;8.85;;;5.28;;
19788;SDS011;10054;59.332;18.244;2022-08-19T13:28:59;8.50;;;5.30;;
19788;SDS011;10054;59.332;18.244;2022-08-19T13:31:46;7.95;;;5.00;;
19788;SDS011;10054;59.332;18.244;2022-08-19T13:34:34;9.13;;;5.65;;
19788;SDS011;10054;59.332;18.244;2022-08-19T13:37:03;11.15;;;5.40;;
19788;SDS011;10054;59.332;18.244;2022-08-19T13:39:34;10.10;;;5.40;;
19788;SDS011;10054;59.332;18.244;2022-08-19T13:42:04;8.55;;;5.08;;
19788;SDS011;10054;59.332;18.244;2022-08-19T13:44:33;8.60;;;5.35;;
19788;SDS011;10054;59.332;18.244;2022-08-19T13:47:03;12.78;;;4.75;;
19788;SDS011;10054;59.332;18.244;2022-08-19T13:49:34;6.05;;;5.05;;
19788;SDS011;10054;59.332;18.244;2022-08-19T13:52:04;6.95;;;4.87;;
19788;SDS011;10054;59.332;18.244;2022-08-19T13:54:33;10.40;;;5.70;;
19788;SDS011;10054;59.332;18.244;2022-08-19T13:57:02;9.90;;;5.30;;
19788;SDS011;10054;59.332;18.244;2022-08-19T13:59:31;8.28;;;5.92;;
19788;SDS011;10054;59.332;18.244;2022-08-19T14:02:00;10.18;;;5.40;;
19788;SDS011;10054;59.332;18.244;2022-08-19T14:04:31;10.18;;;5.12;;
19788;SDS011;10054;59.332;18.244;2022-08-19T14:07:00;12.20;;;5.08;;
19788;SDS011;10054;59.332;18.244;2022-08-19T14:09:29;11.03;;;4.95;;
19788;SDS011;10054;59.332;18.244;2022-08-19T14:11:58;11.60;;;5.33;;
19788;SDS011;10054;59.332;18.244;2022-08-19T14:14:27;10.70;;;5.10;;
19788;SDS011;10054;59.332;18.244;2022-08-19T14:16:56;7.85;;;5.45;;
19788;SDS011;10054;59.332;18.244;2022-08-19T14:19:25;6.75;;;5.08;;
19788;SDS011;10054;59.332;18.244;2022-08-19T14:21:55;7.95;;;5.30;;
19788;SDS011;10054;59.332;18.244;2022-08-19T14:24:24;10.58;;;5.47;;
19788;SDS011;10054;59.332;18.244;2022-08-19T14:26:53;7.42;;;5.33;;
19788;SDS011;10054;59.332;18.244;2022-08-19T14:29:22;10.38;;;5.47;;
19788;SDS011;10054;59.332;18.244;2022-08-19T14:31:50;9.48;;;5.58;;
19788;SDS011;10054;59.332;18.244;2022-08-19T14:34:19;7.83;;;5.80;;
19788;SDS011;10054;59.332;18.244;2022-08-19T14:36:48;14.53;;;5.70;;
19788;SDS011;10054;59.332;18.244;2022-08-19T14:39:17;13.60;;;6.28;;
19788;SDS011;10054;59.332;18.244;2022-08-19T14:41:46;6.78;;;5.72;;
19788;SDS011;10054;59.332;18.244;2022-08-19T14:44:15;8.40;;;5.72;;
19788;SDS011;10054;59.332;18.244;2022-08-19T14:46:45;7.87;;;5.70;;
19788;SDS011;10054;59.332;18.244;2022-08-19T14:49:14;11.78;;;5.70;;
19788;SDS011;10054;59.332;18.244;2022-08-19T14:51:44;8.83;;;5.35;;